GOOY/DKR METAR and TAF weather

Enter ICAO airport designator
Station Type Date Time Source
GOOY METAR 2020/08/10 18:00 UTC NOAA

GOOY 101800Z 24008KT 9999 SCT013 29/23 Q1010


Station Type Date Time Source
GOOY Decoded METAR 2020/08/10 18:00 UTC NOAA

Dakar / Yoff, Senegal (GOOY) 14-44N 017-30W 24M
Aug 10, 2020 - 02:00 PM EDT / 2020.08.10 1800 UTC
Wind: from the WSW (240 degrees) at 9 MPH (8 KT):0
Visibility: greater than 7 mile(s):0
Sky conditions: partly cloudy
Temperature: 84 F (29 C)
Dew Point: 73 F (23 C)
Relative Humidity: 70%
Pressure (altimeter): 29.83 in. Hg (1010 hPa)
ob: GOOY 101800Z 24008KT 9999 SCT013 29/23 Q1010
cycle: 18

Station Type Date Time Source
GOOY TAF 2020/08/10 18:33 UTC NOAA

TAF GOOY 101730Z 1018/1124 28008KT 9999 SCT013 PROB40
TEMPO 1020/1024 4500 TSRA BKN013 FEW025CB

Example: see airport list